Time;durP1;ratioP1;P1;durP2;ratioP2;P2;SDS_P1;SDS_P2;PMS_P1;PMS_P2;Temp;Humidity;BMP_temperature;BMP_pressure;BME280_temperature;BME280_humidity;BME280_pressure;Samples;Min_cycle;Max_cycle;Signal;HPM_P1;HPM_P2
2023/03/15 12:00:34;;;;;;;3.35;2.60;;;;;;;13.45;43.87;95774.22;4956414;28;20047;-65
2023/03/15 12:03:28;;;;;;;2.50;2.25;;;;;;;13.36;44.66;95767.19;4963738;28;20038;-66
2023/03/15 12:06:05;;;;;;;6.82;2.60;;;;;;;13.74;42.66;95759.78;4962714;28;20400;-66
2023/03/15 12:08:51;;;;;;;7.15;2.83;;;;;;;13.71;42.10;95760.13;4967346;28;20142;-65
2023/03/15 12:11:22;;;;;;;3.80;2.20;;;;;;;13.80;41.92;95760.13;4968826;28;20455;-66
2023/03/15 12:13:57;;;;;;;7.50;2.60;;;;;;;13.32;41.65;95773.78;4969871;28;20046;-67
2023/03/15 12:16:26;;;;;;;6.28;2.03;;;;;;;12.84;43.37;95776.78;4968503;28;20067;-67
2023/03/15 12:18:56;;;;;;;3.00;2.08;;;;;;;13.26;42.97;95763.84;4963468;28;20042;-66
2023/03/15 12:21:52;;;;;;;2.55;2.00;;;;;;;13.56;42.02;95759.06;4964856;28;20030;-67
2023/03/15 12:24:36;;;;;;;2.42;1.80;;;;;;;13.78;42.02;95756.81;4969550;28;20043;-67
2023/03/15 12:27:18;;;;;;;3.05;1.85;;;;;;;14.06;39.51;95748.66;4965248;28;20023;-66
2023/03/15 12:29:46;;;;;;;4.10;1.80;;;;;;;14.00;39.14;95747.47;4968610;28;21106;-66
2023/03/15 12:32:14;;;;;;;4.55;2.00;;;;;;;13.72;39.74;95748.53;4969418;28;20011;-67
2023/03/15 12:34:50;;;;;;;3.95;2.17;;;;;;;14.13;38.30;95747.00;4967867;28;20023;-66
2023/03/15 12:37:36;;;;;;;2.67;1.83;;;;;;;13.94;36.89;95742.84;4968713;28;20078;-66
2023/03/15 12:40:14;;;;;;;6.90;2.10;;;;;;;14.08;39.06;95741.38;4970616;28;20086;-66
2023/03/15 12:42:39;;;;;;;4.35;2.40;;;;;;;14.03;37.64;95740.00;4968664;28;20040;-67
2023/03/15 12:45:16;;;;;;;5.07;2.55;;;;;;;14.04;40.26;95739.06;4969179;28;21102;-67
2023/03/15 12:47:48;;;;;;;3.65;2.35;;;;;;;13.74;38.79;95732.53;4967088;28;20042;-66
2023/03/15 12:50:35;;;;;;;2.00;1.90;;;;;;;13.84;40.77;95727.09;4966094;28;20029;-66
2023/03/15 12:53:11;;;;;;;2.65;2.05;;;;;;;13.45;39.92;95720.50;4972969;28;20035;-67
2023/03/15 12:55:39;;;;;;;2.58;1.83;;;;;;;14.04;38.82;95724.97;4965444;28;20023;-66
2023/03/15 12:58:11;;;;;;;3.75;2.78;;;;;;;13.88;38.15;95728.41;4965214;28;20023;-67
2023/03/15 13:00:39;;;;;;;4.10;2.50;;;;;;;14.17;38.57;95729.78;4963922;28;20083;-66
2023/03/15 13:03:26;;;;;;;3.00;2.10;;;;;;;14.03;34.85;95737.38;4966825;28;20035;-67
2023/03/15 13:06:11;;;;;;;1.50;1.40;;;;;;;13.82;37.05;95734.38;4964143;28;20047;-67
2023/03/15 13:08:42;;;;;;;3.37;1.93;;;;;;;14.03;36.58;95732.06;4973428;28;20031;-67
2023/03/15 13:11:32;;;;;;;3.10;2.10;;;;;;;14.15;34.52;95729.13;4967073;28;20291;-66
2023/03/15 13:14:24;;;;;;;2.42;1.67;;;;;;;14.68;35.54;95728.81;4962523;28;20034;-67
2023/03/15 13:17:00;;;;;;;3.00;2.33;;;;;;;14.84;34.54;95722.72;4964407;28;20113;-67
2023/03/15 13:19:32;;;;;;;1.80;1.70;;;;;;;14.87;34.61;95717.88;4966810;28;20039;-68
2023/03/15 13:22:20;;;;;;;3.28;1.50;;;;;;;14.40;34.06;95727.34;4974737;28;20388;-66
2023/03/15 13:24:57;;;;;;;2.92;1.70;;;;;;;14.85;34.99;95719.88;4932956;28;20098;-66
2023/03/15 13:27:48;;;;;;;3.47;1.90;;;;;;;14.57;34.68;95722.88;4974568;28;20037;-66
2023/03/15 13:30:35;;;;;;;2.30;1.90;;;;;;;14.90;36.76;95712.25;4972861;28;20048;-66
2023/03/15 13:33:05;;;;;;;2.40;1.80;;;;;;;14.57;33.65;95724.66;4967716;28;20046;-67
2023/03/15 13:35:31;;;;;;;2.97;1.63;;;;;;;14.94;32.20;95714.59;4964705;28;20082;-66
2023/03/15 13:38:08;;;;;;;1.52;1.40;;;;;;;14.75;33.33;95720.06;4970602;28;20140;-66
2023/03/15 13:40:33;;;;;;;3.08;1.92;;;;;;;14.75;34.14;95712.09;4972663;28;20023;-66
2023/03/15 13:43:00;;;;;;;3.22;1.77;;;;;;;15.03;33.76;95721.50;4970857;28;20467;-67
2023/03/15 13:45:26;;;;;;;4.32;2.50;;;;;;;15.36;32.63;95720.59;4969446;28;20027;-66
2023/03/15 13:47:51;;;;;;;2.05;1.70;;;;;;;15.03;33.32;95729.47;4967721;28;20087;-66
2023/03/15 13:50:19;;;;;;;5.25;3.97;;;;;;;15.14;33.93;95718.53;4961497;28;20122;-66
2023/03/15 13:52:47;;;;;;;2.00;1.80;;;;;;;14.95;33.96;95719.69;4971101;28;20105;-66
2023/03/15 13:55:15;;;;;;;4.63;2.25;;;;;;;14.84;34.91;95720.88;4972003;28;20038;-66
2023/03/15 13:57:41;;;;;;;2.25;1.92;;;;;;;14.68;35.82;95720.84;4970938;28;20026;-66
2023/03/15 14:00:16;;;;;;;2.15;1.95;;;;;;;14.67;35.39;95721.84;4971367;28;20411;-66
2023/03/15 14:02:41;;;;;;;2.80;2.60;;;;;;;14.61;33.64;95718.06;4974042;28;20096;-66
2023/03/15 14:05:11;;;;;;;3.10;2.70;;;;;;;14.65;33.04;95707.94;4968164;28;20046;-66
2023/03/15 14:07:47;;;;;;;2.88;2.53;;;;;;;14.69;32.40;95719.84;4972383;28;20018;-66
2023/03/15 14:10:15;;;;;;;5.88;2.80;;;;;;;14.54;34.74;95715.25;4963835;28;20531;-66
2023/03/15 14:12:41;;;;;;;3.60;2.38;;;;;;;14.84;34.74;95709.47;4968725;28;20039;-66
2023/03/15 14:15:41;;;;;;;10.98;7.70;;;;;;;14.94;32.68;95698.69;4969857;28;20110;-66
2023/03/15 14:18:07;;;;;;;2.05;1.40;;;;;;;14.66;33.43;95710.44;4957295;28;20171;-65
2023/03/15 14:20:35;;;;;;;4.47;4.07;;;;;;;14.69;32.80;95711.91;4974209;28;20058;-66
2023/03/15 14:23:02;;;;;;;3.33;2.72;;;;;;;14.55;32.91;95716.06;4962851;28;20038;-66
2023/03/15 14:25:28;;;;;;;13.73;11.98;;;;;;;14.43;34.66;95718.22;4970574;28;20062;-66
2023/03/15 14:27:54;;;;;;;4.65;2.78;;;;;;;14.04;33.90;95712.59;4960670;28;20118;-66
2023/03/15 14:30:24;;;;;;;3.58;3.25;;;;;;;14.20;32.59;95712.75;4971989;28;20062;-65
2023/03/15 14:32:57;;;;;;;3.78;2.60;;;;;;;14.33;34.29;95718.38;4969962;28;20030;-67
2023/03/15 14:35:42;;;;;;;3.92;1.58;;;;;;;13.72;32.79;95716.78;4972578;28;20045;-66
2023/03/15 14:38:19;;;;;;;4.93;4.55;;;;;;;14.24;35.37;95717.53;4970196;28;20023;-66
2023/03/15 14:40:46;;;;;;;4.38;2.70;;;;;;;14.01;34.99;95725.31;4972103;28;20082;-66
2023/03/15 14:43:11;;;;;;;1.88;1.63;;;;;;;13.95;34.85;95715.38;4965199;28;20510;-67
2023/03/15 14:45:39;;;;;;;3.13;2.80;;;;;;;13.85;34.09;95731.41;4962839;28;20029;-67
2023/03/15 14:48:13;;;;;;;5.47;4.97;;;;;;;14.03;32.80;95721.47;4966609;28;20039;-67
2023/03/15 14:50:44;;;;;;;6.45;3.33;;;;;;;13.72;31.04;95734.50;4968935;28;20109;-66
2023/03/15 14:53:16;;;;;;;5.05;4.55;;;;;;;13.75;31.67;95734.19;4970188;28;20065;-64
2023/03/15 14:55:41;;;;;;;3.10;2.90;;;;;;;13.21;33.47;95731.78;4967919;28;20042;-66
2023/03/15 14:58:13;;;;;;;5.60;5.03;;;;;;;13.22;32.71;95734.25;4967380;28;20031;-66
2023/03/15 15:00:40;;;;;;;5.50;5.03;;;;;;;13.19;32.12;95734.56;4955542;28;20118;-65
2023/03/15 15:03:37;;;;;;;4.22;2.67;;;;;;;13.17;35.27;95733.88;4966195;28;20042;-65
2023/03/15 15:06:04;;;;;;;3.28;2.90;;;;;;;13.03;32.15;95737.94;4969187;28;20045;-64
2023/03/15 15:08:30;;;;;;;3.17;2.90;;;;;;;12.94;32.50;95721.22;4979273;28;20031;-65
2023/03/15 15:10:56;;;;;;;6.72;3.80;;;;;;;12.64;33.89;95733.06;4971421;28;20031;-65
2023/03/15 15:13:27;;;;;;;3.90;2.17;;;;;;;12.52;36.07;95732.47;4964670;28;20038;-65
2023/03/15 15:15:53;;;;;;;3.00;2.80;;;;;;;12.26;36.99;95728.78;4965133;28;20042;-66
2023/03/15 15:18:20;;;;;;;2.60;2.22;;;;;;;12.09;36.03;95721.72;4968892;28;20056;-65
2023/03/15 15:20:46;;;;;;;7.57;6.88;;;;;;;12.14;34.38;95719.47;4969041;28;20026;-65
2023/03/15 15:23:18;;;;;;;3.28;2.35;;;;;;;12.03;35.24;95717.88;4973692;28;20042;-65
2023/03/15 15:25:45;;;;;;;2.33;2.22;;;;;;;12.04;35.94;95707.16;4972389;28;20039;-65
2023/03/15 15:28:11;;;;;;;2.38;2.20;;;;;;;11.74;34.08;95706.50;4965552;28;20414;-65
2023/03/15 15:30:37;;;;;;;2.42;2.22;;;;;;;11.72;34.12;95703.19;4971844;28;20015;-65
2023/03/15 15:33:02;;;;;;;3.17;2.58;;;;;;;11.51;32.99;95705.25;4971416;28;20037;-66
2023/03/15 15:35:28;;;;;;;3.97;1.95;;;;;;;11.38;34.15;95709.06;4963122;28;20151;-66
2023/03/15 15:37:54;;;;;;;1.80;1.70;;;;;;;11.30;34.16;95715.09;4970968;28;20049;-65
2023/03/15 15:40:27;;;;;;;2.45;1.88;;;;;;;11.25;35.81;95729.66;4973825;28;20041;-67
2023/03/15 15:42:53;;;;;;;5.65;1.50;;;;;;;11.22;33.37;95727.31;4971424;28;20054;-66
2023/03/15 15:45:19;;;;;;;1.95;1.85;;;;;;;10.99;36.77;95730.31;4969379;28;20031;-65
2023/03/15 15:47:45;;;;;;;2.00;1.48;;;;;;;11.06;35.40;95731.41;4972668;28;20172;-66
2023/03/15 15:50:13;;;;;;;2.03;1.33;;;;;;;10.89;35.51;95731.16;4965938;28;20026;-65
2023/03/15 15:52:41;;;;;;;1.50;1.40;;;;;;;10.82;36.95;95724.81;4973061;28;20118;-65
2023/03/15 15:55:38;;;;;;;1.60;1.50;;;;;;;10.89;35.32;95715.34;4965469;28;20082;-64
2023/03/15 15:58:04;;;;;;;;;;;;;;;10.64;35.10;95723.88;4955791;28;20050;-65
2023/03/15 16:00:29;;;;;;;1.83;1.73;;;;;;;10.57;35.69;95732.34;4971337;28;20351;-65
2023/03/15 16:02:56;;;;;;;2.90;2.67;;;;;;;10.45;37.44;95729.03;4965581;28;20039;-64
2023/03/15 16:05:25;;;;;;;1.77;1.35;;;;;;;10.27;37.27;95734.13;4965351;28;20568;-65
2023/03/15 16:07:51;;;;;;;2.75;2.50;;;;;;;10.22;39.35;95741.63;4973290;28;20129;-65
2023/03/15 16:10:21;;;;;;;2.60;2.40;;;;;;;10.38;37.00;95740.22;4958708;28;20027;-65
2023/03/15 16:12:48;;;;;;;2.10;2.00;;;;;;;10.10;38.24;95730.41;4967080;28;20042;-65
2023/03/15 16:15:15;;;;;;;1.40;1.30;;;;;;;9.93;37.61;95752.97;4965164;28;20404;-65
2023/03/15 16:17:41;;;;;;;2.15;1.88;;;;;;;9.83;39.73;95758.19;4971170;28;20066;-65
2023/03/15 16:20:08;;;;;;;3.42;1.67;;;;;;;9.64;40.20;95753.75;4966658;28;20035;-65
2023/03/15 16:22:35;;;;;;;1.50;1.40;;;;;;;9.57;40.12;95749.97;4969527;28;20105;-65
2023/03/15 16:25:04;;;;;;;2.15;1.70;;;;;;;9.44;40.44;95742.31;4962785;28;20041;-65
2023/03/15 16:27:29;;;;;;;4.85;4.35;;;;;;;9.29;41.53;95741.88;4959619;28;20468;-65
2023/03/15 16:29:55;;;;;;;5.22;3.33;;;;;;;9.16;43.05;95750.78;4968905;28;20185;-65
2023/03/15 16:32:25;;;;;;;6.28;5.22;;;;;;;9.17;43.19;95747.22;4965524;28;20102;-65
2023/03/15 16:34:52;;;;;;;3.67;3.25;;;;;;;9.21;42.31;95747.78;4965010;28;20118;-64
2023/03/15 16:37:24;;;;;;;11.00;9.98;;;;;;;8.91;44.21;95751.22;4969649;28;20031;-65
2023/03/15 16:39:53;;;;;;;9.10;7.57;;;;;;;8.84;44.21;95749.13;4965846;28;20498;-64
2023/03/15 16:42:20;;;;;;;5.45;3.83;;;;;;;8.63;43.20;95751.78;4973319;28;20027;-64
2023/03/15 16:44:45;;;;;;;8.13;5.25;;;;;;;8.60;42.45;95744.13;4971458;28;20033;-64
2023/03/15 16:47:11;;;;;;;3.75;3.28;;;;;;;8.47;42.21;95749.53;4971038;28;20018;-64
2023/03/15 16:49:36;;;;;;;2.35;2.15;;;;;;;8.48;41.13;95753.81;4971718;28;20033;-64
2023/03/15 16:52:05;;;;;;;2.85;2.70;;;;;;;8.21;42.90;95754.34;4968077;28;20074;-64
2023/03/15 16:54:33;;;;;;;3.17;2.50;;;;;;;8.34;41.21;95762.84;4962488;28;20094;-64
2023/03/15 16:57:00;;;;;;;4.18;1.98;;;;;;;8.24;40.55;95760.16;4964434;28;20030;-64
2023/03/15 16:59:26;;;;;;;4.53;2.53;;;;;;;8.15;41.61;95758.28;4973295;28;20054;-64
2023/03/15 17:01:52;;;;;;;3.42;3.13;;;;;;;8.16;41.62;95759.94;4971036;28;20061;-65
2023/03/15 17:04:17;;;;;;;4.15;3.00;;;;;;;8.08;41.18;95759.75;4972592;28;20027;-64
2023/03/15 17:06:44;;;;;;;6.20;3.80;;;;;;;7.82;42.71;95778.41;4974595;28;20038;-65
2023/03/15 17:09:15;;;;;;;4.93;4.32;;;;;;;7.88;42.10;95777.94;4966381;28;20086;-65
2023/03/15 17:11:43;;;;;;;7.97;4.30;;;;;;;7.67;43.12;95777.84;4973287;28;20030;-65
2023/03/15 17:14:14;;;;;;;4.38;2.58;;;;;;;7.60;44.14;95775.72;4972838;28;20736;-65
2023/03/15 17:16:40;;;;;;;3.17;2.60;;;;;;;7.62;44.28;95772.13;4970531;28;20027;-66
2023/03/15 17:19:10;;;;;;;9.15;3.30;;;;;;;7.47;44.10;95776.78;4949756;28;20495;-64
2023/03/15 17:21:35;;;;;;;5.22;2.22;;;;;;;7.55;42.96;95777.88;4963724;28;20031;-65
2023/03/15 17:24:01;;;;;;;7.60;3.50;;;;;;;7.32;44.16;95777.03;4972569;28;20041;-64
2023/03/15 17:26:30;;;;;;;4.93;4.30;;;;;;;7.27;43.74;95789.66;4970826;28;20480;-65
2023/03/15 17:28:55;;;;;;;7.88;7.07;;;;;;;7.26;43.13;95790.63;4968132;28;20027;-64
2023/03/15 17:31:24;;;;;;;4.05;3.75;;;;;;;7.22;43.75;95799.66;4966313;28;20031;-65
2023/03/15 17:33:50;;;;;;;2.80;2.60;;;;;;;6.99;43.70;95803.09;4965778;28;20049;-64
2023/03/15 17:36:20;;;;;;;5.30;3.88;;;;;;;6.85;43.83;95806.75;4960564;28;20102;-64
2023/03/15 17:38:47;;;;;;;14.13;11.40;;;;;;;6.76;44.89;95811.84;4969804;28;20055;-64
2023/03/15 17:41:31;;;;;;;6.93;6.00;;;;;;;6.66;47.80;95811.69;4966159;28;20019;-63
2023/03/15 17:43:56;;;;;;;10.23;6.72;;;;;;;6.58;47.46;95810.50;4970558;28;20372;-63
2023/03/15 17:46:31;;;;;;;7.30;4.70;;;;;;;6.45;48.04;95813.19;4966435;28;20050;-64
2023/03/15 17:48:59;;;;;;;4.95;3.88;;;;;;;6.36;50.06;95815.66;4963521;28;20027;-64
2023/03/15 17:51:27;;;;;;;10.30;7.07;;;;;;;6.29;49.28;95826.53;4945621;28;20114;-64
2023/03/15 17:53:53;;;;;;;7.25;6.55;;;;;;;6.23;51.30;95832.22;4966391;28;20479;-65
2023/03/15 17:56:21;;;;;;;6.60;6.00;;;;;;;6.12;51.99;95826.94;4967315;28;20039;-64
2023/03/15 17:58:47;;;;;;;7.85;5.10;;;;;;;6.02;52.82;95837.25;4968054;28;20031;-65
2023/03/15 18:01:22;;;;;;;10.02;6.20;;;;;;;5.98;54.58;95833.16;4969441;28;20484;-65
2023/03/15 18:03:49;;;;;;;7.50;5.03;;;;;;;5.82;54.59;95834.22;4971009;28;20403;-64
2023/03/15 18:06:16;;;;;;;4.32;3.92;;;;;;;5.72;54.20;95838.44;4966689;28;20031;-64
2023/03/15 18:08:42;;;;;;;4.93;3.25;;;;;;;5.60;56.30;95834.91;4963739;28;20037;-64
2023/03/15 18:11:28;;;;;;;6.55;4.53;;;;;;;5.44;57.44;95843.81;4966705;28;20026;-64
2023/03/15 18:13:53;;;;;;;4.70;4.30;;;;;;;5.38;56.66;95840.81;4969156;28;20030;-64
2023/03/15 18:16:19;;;;;;;4.50;4.10;;;;;;;5.30;58.11;95838.72;4966386;28;20027;-64
2023/03/15 18:18:45;;;;;;;5.53;4.93;;;;;;;5.18;58.72;95836.94;4965808;28;20105;-65
2023/03/15 18:21:16;;;;;;;6.72;5.45;;;;;;;5.12;60.28;95838.22;4966264;28;20079;-64
2023/03/15 18:23:42;;;;;;;9.20;5.68;;;;;;;5.06;61.78;95838.59;4954155;28;20219;-65
2023/03/15 18:26:08;;;;;;;5.40;4.90;;;;;;;4.98;63.85;95837.34;4953419;28;20043;-65
2023/03/15 18:28:34;;;;;;;5.95;5.13;;;;;;;4.93;65.65;95846.44;4959913;28;20030;-65
2023/03/15 18:30:59;;;;;;;5.20;4.80;;;;;;;4.82;65.28;95841.94;4958853;28;20494;-65
2023/03/15 18:33:25;;;;;;;5.60;5.05;;;;;;;4.80;64.88;95831.63;4950359;28;20039;-65
2023/03/15 18:35:52;;;;;;;6.78;5.00;;;;;;;4.80;63.77;95831.63;4955779;28;20118;-65
2023/03/15 18:38:18;;;;;;;8.68;7.05;;;;;;;4.74;65.78;95832.00;4960639;28;20042;-65
2023/03/15 18:40:43;;;;;;;7.15;6.45;;;;;;;4.64;66.46;95829.19;4953317;28;20019;-65
2023/03/15 18:43:13;;;;;;;8.45;7.43;;;;;;;4.56;67.45;95823.63;4952879;28;20080;-65
2023/03/15 18:45:39;;;;;;;18.13;15.23;;;;;;;4.48;68.24;95811.09;4955907;28;20023;-65
2023/03/15 18:48:05;;;;;;;6.70;6.13;;;;;;;4.37;67.43;95814.41;4948052;28;20027;-65
2023/03/15 18:50:32;;;;;;;7.72;7.00;;;;;;;4.34;67.37;95811.19;4954725;28;20528;-65
2023/03/15 18:52:58;;;;;;;14.30;10.90;;;;;;;4.25;68.36;95808.25;4949461;28;20099;-65
2023/03/15 18:55:23;;;;;;;14.95;11.90;;;;;;;4.35;66.64;95812.88;4937804;29;20023;-65
2023/03/15 18:57:50;;;;;;;13.57;12.25;;;;;;;4.22;68.57;95816.25;4954627;28;20090;-65
2023/03/15 19:00:24;;;;;;;15.10;13.40;;;;;;;4.10;70.31;95812.69;4954375;28;20424;-64
2023/03/15 19:02:51;;;;;;;14.77;13.23;;;;;;;4.03;70.28;95811.41;4955621;28;20027;-64
2023/03/15 19:05:17;;;;;;;17.38;15.75;;;;;;;3.98;70.35;95810.88;4950605;28;20044;-65
2023/03/15 19:07:43;;;;;;;17.52;15.88;;;;;;;3.91;72.00;95807.81;4953313;28;20471;-64
2023/03/15 19:10:12;;;;;;;21.33;19.23;;;;;;;3.86;72.30;95804.66;4949590;28;20114;-64
2023/03/15 19:12:39;;;;;;;14.25;13.02;;;;;;;3.84;73.04;95801.31;4953619;28;20024;-65
2023/03/15 19:15:09;;;;;;;13.00;11.70;;;;;;;3.77;72.93;95806.09;4943701;28;20060;-65
2023/03/15 19:17:35;;;;;;;13.52;12.23;;;;;;;3.70;73.95;95800.44;4950016;28;20286;-64
2023/03/15 19:20:00;;;;;;;12.75;10.32;;;;;;;3.67;73.09;95810.22;4950162;28;20142;-64
2023/03/15 19:22:29;;;;;;;11.38;10.27;;;;;;;3.65;72.76;95807.72;4953994;28;20026;-64
2023/03/15 19:24:55;;;;;;;10.95;9.95;;;;;;;3.58;74.40;95807.25;4949247;28;20478;-64
2023/03/15 19:27:20;;;;;;;14.35;12.27;;;;;;;3.48;76.39;95813.13;4952613;28;20058;-63
2023/03/15 19:29:45;;;;;;;12.90;11.70;;;;;;;3.40;77.36;95814.44;4950885;28;20023;-64
2023/03/15 19:32:11;;;;;;;13.50;11.88;;;;;;;3.37;76.88;95821.59;4952342;28;20070;-64
2023/03/15 19:34:36;;;;;;;12.98;11.73;;;;;;;3.30;77.34;95818.53;4951351;28;20091;-64
2023/03/15 19:37:02;;;;;;;12.50;8.80;;;;;;;3.31;75.64;95815.00;4954002;28;20030;-64
2023/03/15 19:39:28;;;;;;;11.10;9.88;;;;;;;3.33;76.14;95826.16;4955708;28;20059;-63
2023/03/15 19:41:54;;;;;;;11.00;9.80;;;;;;;3.29;75.87;95832.47;4954688;28;20500;-63
2023/03/15 19:44:21;;;;;;;11.52;10.35;;;;;;;3.27;76.30;95829.13;4952159;28;20024;-63
2023/03/15 19:46:46;;;;;;;9.63;8.63;;;;;;;3.26;76.00;95832.66;4953196;28;20023;-63
2023/03/15 19:49:12;;;;;;;11.38;9.57;;;;;;;3.20;75.85;95827.81;4947226;28;20091;-62
2023/03/15 19:51:37;;;;;;;12.48;9.48;;;;;;;3.13;79.25;95828.19;4947141;28;20407;-62
2023/03/15 19:54:02;;;;;;;9.52;8.55;;;;;;;3.03;78.28;95819.28;4952427;28;20035;-63
2023/03/15 19:56:28;;;;;;;11.27;9.27;;;;;;;3.01;79.10;95827.16;4946913;28;20031;-63
2023/03/15 19:58:54;;;;;;;12.27;8.68;;;;;;;2.98;78.79;95826.50;4951240;28;20476;-63
2023/03/15 20:01:20;;;;;;;8.50;6.72;;;;;;;2.94;78.07;95832.81;4952701;28;20504;-63
2023/03/15 20:03:46;;;;;;;20.63;14.93;;;;;;;2.94;77.74;95838.88;4928690;29;20074;-62
2023/03/15 20:06:12;;;;;;;14.55;11.60;;;;;;;2.89;79.70;95840.06;4949629;28;20044;-63
2023/03/15 20:08:39;;;;;;;66.95;38.33;;;;;;;2.82;79.06;95835.25;4953509;28;20023;-62
2023/03/15 20:11:06;;;;;;;57.50;33.03;;;;;;;2.74;81.28;95842.63;4951202;28;20082;-63
2023/03/15 20:13:35;;;;;;;51.95;31.20;;;;;;;2.69;81.89;95845.53;4958918;28;20030;-62
2023/03/15 20:16:03;;;;;;;44.53;29.42;;;;;;;2.69;81.30;95842.09;4954971;28;20031;-64
2023/03/15 20:18:28;;;;;;;40.45;24.55;;;;;;;2.74;80.20;95837.44;4948176;28;20038;-62
2023/03/15 20:20:53;;;;;;;31.67;20.63;;;;;;;2.82;79.50;95850.84;4952799;28;20034;-64
2023/03/15 20:23:19;;;;;;;25.75;18.63;;;;;;;2.80;81.84;95851.84;4957460;28;20023;-62
2023/03/15 20:25:44;;;;;;;33.30;22.95;;;;;;;2.70;82.17;95851.56;4950755;28;20031;-64
2023/03/15 20:28:10;;;;;;;31.25;20.00;;;;;;;2.64;82.36;95849.31;4947870;28;20043;-64
2023/03/15 20:30:40;;;;;;;21.48;15.25;;;;;;;2.55;83.07;95842.88;4953471;28;20518;-64
2023/03/15 20:33:07;;;;;;;20.75;15.77;;;;;;;2.46;83.68;95846.84;4956253;28;20821;-64
2023/03/15 20:35:34;;;;;;;21.25;16.23;;;;;;;2.41;84.12;95851.47;4952413;28;20102;-64
2023/03/15 20:38:05;;;;;;;24.58;17.67;;;;;;;2.45;84.64;95846.97;4955660;28;20056;-64
2023/03/15 20:40:32;;;;;;;18.40;15.48;;;;;;;2.43;83.06;95853.09;4951730;28;20023;-63
2023/03/15 20:42:57;;;;;;;16.30;12.63;;;;;;;2.40;82.59;95852.41;4952712;28;20034;-63
2023/03/15 20:45:22;;;;;;;15.40;12.65;;;;;;;2.40;82.97;95847.22;4956914;28;20062;-64
2023/03/15 20:47:48;;;;;;;19.17;15.57;;;;;;;2.40;83.06;95860.22;4955532;28;20444;-63
2023/03/15 20:50:13;;;;;;;23.85;18.58;;;;;;;2.36;82.66;95866.50;4957104;28;20171;-63
2023/03/15 20:52:41;;;;;;;22.80;16.85;;;;;;;2.29;83.93;95864.22;4956527;28;20035;-64
2023/03/15 20:55:07;;;;;;;21.73;16.90;;;;;;;2.28;84.48;95861.75;4952633;28;20023;-64
2023/03/15 20:57:35;;;;;;;25.70;17.45;;;;;;;2.19;86.81;95870.03;4950119;28;20028;-64
2023/03/15 21:00:01;;;;;;;107.60;47.17;;;;;;;2.07;87.10;95863.75;4955354;28;20051;-64
2023/03/15 21:02:26;;;;;;;73.57;37.35;;;;;;;2.03;85.65;95862.28;4950724;28;20781;-64
2023/03/15 21:04:52;;;;;;;25.63;15.82;;;;;;;1.95;87.02;95860.94;4951154;28;20030;-64
2023/03/15 21:07:17;;;;;;;15.95;11.10;;;;;;;1.95;87.88;95862.69;4955484;28;20031;-65
2023/03/15 21:09:43;;;;;;;23.63;15.13;;;;;;;1.94;86.97;95861.88;4955707;28;20087;-64
2023/03/15 21:12:08;;;;;;;91.18;42.20;;;;;;;1.95;86.61;95854.91;4956801;28;20058;-64
2023/03/15 21:14:34;;;;;;;111.43;50.30;;;;;;;1.95;86.44;95841.91;4958470;28;20082;-64
2023/03/15 21:17:00;;;;;;;92.10;40.30;;;;;;;1.98;86.10;95846.94;4952441;28;20043;-64
2023/03/15 21:19:26;;;;;;;66.07;33.10;;;;;;;1.92;87.25;95853.31;4952736;28;20023;-64
2023/03/15 21:21:52;;;;;;;47.28;25.38;;;;;;;1.92;86.90;95850.72;4956536;28;20038;-64
2023/03/15 21:24:18;;;;;;;47.22;22.88;;;;;;;1.93;87.82;95859.34;4953946;28;20407;-64
2023/03/15 21:26:47;;;;;;;47.00;23.77;;;;;;;1.86;87.19;95857.09;4954172;28;20042;-64
2023/03/15 21:29:12;;;;;;;42.15;22.50;;;;;;;1.81;87.15;95853.06;4950693;28;20070;-64
2023/03/15 21:31:38;;;;;;;41.83;19.90;;;;;;;1.84;87.26;95852.88;4954453;28;20326;-64
2023/03/15 21:34:03;;;;;;;30.30;17.08;;;;;;;1.75;88.48;95843.03;4954772;28;20042;-64
2023/03/15 21:36:29;;;;;;;31.58;18.55;;;;;;;1.81;88.03;95845.28;4952655;28;20046;-64
2023/03/15 21:38:54;;;;;;;37.92;19.73;;;;;;;1.72;89.32;95844.00;4953765;28;20872;-64
2023/03/15 21:41:20;;;;;;;42.75;21.98;;;;;;;1.76;88.74;95834.31;4954951;28;20081;-64
2023/03/15 21:43:45;;;;;;;31.13;18.75;;;;;;;1.81;89.02;95842.69;4952067;28;20378;-64
2023/03/15 21:46:14;;;;;;;31.65;19.38;;;;;;;1.78;89.25;95848.91;4951891;28;20032;-64
2023/03/15 21:48:40;;;;;;;29.55;17.13;;;;;;;1.75;89.57;95845.63;4953790;28;20058;-64
2023/03/15 21:51:06;;;;;;;24.13;13.65;;;;;;;1.74;88.79;95841.34;4935703;28;20151;-64
2023/03/15 21:53:35;;;;;;;18.83;11.70;;;;;;;1.73;89.01;95847.47;4951378;28;20039;-64
2023/03/15 21:56:02;;;;;;;24.02;12.88;;;;;;;1.72;90.19;95854.41;4953060;28;20504;-64
2023/03/15 21:58:28;;;;;;;30.90;16.95;;;;;;;1.66;90.41;95855.59;4933679;29;20031;-64
2023/03/15 22:01:03;;;;;;;31.52;17.00;;;;;;;1.68;91.26;95852.91;4955035;28;20130;-64
2023/03/15 22:03:28;;;;;;;24.10;13.75;;;;;;;1.62;91.59;95858.44;4951442;28;20032;-64
2023/03/15 22:05:54;;;;;;;27.63;14.93;;;;;;;1.59;91.46;95856.81;4936902;28;20028;-64
2023/03/15 22:08:20;;;;;;;39.40;20.48;;;;;;;1.56;91.71;95860.44;4951522;28;20532;-65
2023/03/15 22:10:45;;;;;;;66.28;32.92;;;;;;;1.54;92.49;95864.84;4957768;28;20140;-64
2023/03/15 22:13:11;;;;;;;55.95;27.45;;;;;;;1.52;93.00;95864.09;4949927;28;20094;-64
2023/03/15 22:15:37;;;;;;;46.28;26.25;;;;;;;1.46;93.68;95868.81;4950836;28;20456;-64
2023/03/15 22:18:02;;;;;;;44.08;24.25;;;;;;;1.46;93.50;95874.00;4950575;28;20122;-64
2023/03/15 22:20:29;;;;;;;41.42;23.13;;;;;;;1.41;93.79;95862.06;4955584;28;20031;-64
2023/03/15 22:22:55;;;;;;;37.90;21.63;;;;;;;1.41;93.80;95866.44;4952817;28;20188;-64
2023/03/15 22:25:20;;;;;;;32.63;21.80;;;;;;;1.40;93.16;95868.19;4952765;28;20032;-64
2023/03/15 22:27:46;;;;;;;31.42;17.83;;;;;;;1.36;95.32;95871.03;4935542;29;20102;-64
2023/03/15 22:30:13;;;;;;;26.45;17.67;;;;;;;1.36;94.14;95869.28;4949985;28;20054;-64
2023/03/15 22:32:42;;;;;;;29.48;18.65;;;;;;;1.34;93.84;95871.09;4953924;28;20011;-64
2023/03/15 22:35:09;;;;;;;19.55;13.18;;;;;;;1.40;93.10;95873.38;4953574;28;20027;-64
2023/03/15 22:37:35;;;;;;;22.58;14.27;;;;;;;1.34;93.34;95878.06;4953671;28;20089;-65
2023/03/15 22:40:00;;;;;;;20.42;14.38;;;;;;;1.32;94.57;95882.47;4954720;28;20750;-65
2023/03/15 22:42:26;;;;;;;20.80;13.93;;;;;;;1.28;94.62;95885.22;4951316;28;20469;-64
2023/03/15 22:44:51;;;;;;;20.25;15.13;;;;;;;1.24;94.13;95877.72;4951990;28;20555;-64
2023/03/15 22:47:16;;;;;;;19.15;11.95;;;;;;;1.21;95.04;95876.09;4948362;28;20034;-64
2023/03/15 22:49:42;;;;;;;18.38;13.27;;;;;;;1.18;95.12;95881.44;4950685;28;20082;-64
2023/03/15 22:52:07;;;;;;;17.85;12.77;;;;;;;1.19;94.42;95882.28;4953872;28;20023;-64
2023/03/15 22:54:33;;;;;;;15.82;10.82;;;;;;;1.17;93.93;95879.78;4954381;28;20106;-64
2023/03/15 22:56:58;;;;;;;20.92;14.88;;;;;;;1.16;94.00;95877.25;4950570;28;20035;-64
2023/03/15 22:59:27;;;;;;;18.90;13.32;;;;;;;1.16;93.63;95874.66;4946927;28;20099;-64
2023/03/15 23:01:54;;;;;;;17.85;12.95;;;;;;;1.18;94.43;95878.00;4955139;28;20106;-64
2023/03/15 23:04:20;;;;;;;16.25;11.63;;;;;;;1.14;95.06;95880.75;4949964;28;20168;-65
2023/03/15 23:06:45;;;;;;;15.23;11.93;;;;;;;1.10;96.04;95878.41;4950846;28;20034;-64
2023/03/15 23:09:11;;;;;;;13.20;10.32;;;;;;;1.07;96.08;95865.59;4922163;29;20027;-63
2023/03/15 23:11:36;;;;;;;12.00;10.20;;;;;;;1.06;95.92;95863.94;4951673;28;20110;-64
2023/03/15 23:14:02;;;;;;;14.07;11.23;;;;;;;1.02;96.69;95857.22;4952914;28;20070;-64
2023/03/15 23:16:27;;;;;;;29.33;18.65;;;;;;;1.03;95.54;95862.34;4929206;29;20077;-64
2023/03/15 23:18:52;;;;;;;23.60;16.77;;;;;;;1.03;97.08;95871.88;4954872;28;20020;-64
2023/03/15 23:21:18;;;;;;;24.25;17.77;;;;;;;1.03;95.98;95871.88;4945707;28;20046;-64
2023/03/15 23:23:43;;;;;;;18.38;13.15;;;;;;;1.02;96.26;95871.03;4954469;28;20392;-64
2023/03/15 23:26:11;;;;;;;14.90;10.77;;;;;;;1.06;94.25;95872.56;4935208;29;20026;-64
2023/03/15 23:28:37;;;;;;;12.43;8.35;;;;;;;1.07;94.06;95879.41;4952975;28;20031;-64
2023/03/15 23:31:04;;;;;;;9.60;8.35;;;;;;;0.93;96.65;95874.09;4948828;28;20090;-64
2023/03/15 23:33:32;;;;;;;14.45;9.18;;;;;;;0.89;96.57;95872.56;4951051;28;20175;-64
2023/03/15 23:35:59;;;;;;;10.68;7.88;;;;;;;0.89;97.81;95875.16;4948535;28;20039;-64
2023/03/15 23:38:24;;;;;;;10.38;7.78;;;;;;;0.99;95.53;95872.03;4951915;28;20038;-64